site sitenws-alerts: Checking more than four warning/county codes can delay the loading of your pages. You should use a cron job to get the data.

Nearby METAR Weather Reports

 

KETB - West Bend Municipal Airport, West Bend, WI
Updated: 01/18/2020 6:15am
Light snow, Overcast
Light snow, Overcast
 Wind from SSE
Wind: SSE 7 mph , 11 km/h
Temperature: 32°F , 0°C
Wind Chill: 25°F , -4°C
Dew Point: 32°F , 0°C
Humidity: 100%
Barometer: 29.70 inHg , 1005.8 hPa
Summary: Light Snow
Clouds: Overcast
Visibility: 2 1/2 miles , 4 km
Cloud details: Overcast 500 ft
2020/01/18 12:15 KETB 181215Z AUTO 15006KT 2 1/2SM -SN OVC005 00/00 A2970 RMK AO2
KOSH - Wittman Regional Airport, Oshkosh, WI
Updated: 01/18/2020 6:19am
Light snow, Mist, Overcast
Light snow, Mist, Overcast
 Wind from SE
Wind: SE 8 mph , 13 km/h
Temperature: 30°F , -1°C
Wind Chill: 22°F , -6°C
Dew Point: 28°F , -2°C
Humidity: 93%
Barometer: 29.69 inHg , 1005.4 hPa
Summary: Light snow, Mist
Clouds: Overcast
Visibility: 2 miles , 3 km
Cloud details: Partly cloudy 900 ft
Mostly cloudy 1400 ft
Overcast 2100 ft
2020/01/18 12:19 KOSH 181219Z 14007KT 2SM -SN BR SCT009 BKN014 OVC021 M01/M02 A2969 RMK AO2 PRESFR P0000 T10111017
 
KSBM - Sheboygan County Memorial, Sheboygan, WI
Updated: 01/18/2020 5:53am
Light snow, Mist, Overcast
Light snow, Mist, Overcast
 Wind from SE
Wind: SE 14 mph , 22 km/h, Gust: 23 mph , 37 km/h
Temperature: 32°F , 0°C
Wind Chill: 22°F , -6°C
Dew Point: 28°F , -2°C
Humidity: 87%
Barometer: 29.74 inHg , 1007.1 hPa
Summary: Light snow, Mist
Clouds: Overcast
Visibility: 1 mile , 2 km
Cloud details: Overcast 500 ft
2020/01/18 11:53 KSBM 181153Z AUTO 14012G20KT 1SM -SN BR OVC005 00/M02 A2974 RMK AO2 SLP078 P0000 60000 T00001017 10000 21017 58069
KFLD - FDL County Airport, Fond du Lac, WI
Updated: 01/18/2020 5:53am
Light snow, Overcast
Light snow, Overcast
 Wind from SSE
Wind: SSE 10 mph , 17 km/h
Temperature: 32°F , 0°C
Wind Chill: 24°F , -4°C
Dew Point: 28°F , -2°C
Humidity: 87%
Barometer: 29.72 inHg , 1006.4 hPa
Summary: Light Snow
Clouds: Overcast
Visibility: 8 miles , 13 km
Cloud details: Partly cloudy 1000 ft
Overcast 3400 ft
2020/01/18 11:53 KFLD 181153Z AUTO 15009KT 8SM -SN SCT010 OVC034 00/M02 A2972 RMK AO2 SLP073 P0001 60004 70005 T00001017 10000 21011 56040
 
KMKE - General Mitchell Field, Milwaukee, WI
Updated: 01/18/2020 6:29am
Light rain, Mist, Overcast
Light rain, Mist, Overcast
 Wind from S
Wind: S 13 mph , 20 km/h
Temperature: 34°F , 1°C
Wind Chill: 25°F , -4°C
Dew Point: 32°F , 0°C
Humidity: 93%
Barometer: 29.70 inHg , 1005.8 hPa
Summary: Light rain, Mist
Clouds: Overcast
Visibility: 2 miles , 3 km
Cloud details: Overcast 500 ft
2020/01/18 12:29 KMKE 181229Z 17011KT 2SM -RA BR OVC005 01/00 A2970 RMK AO2 SFC VIS 4 RAB23FZDZE23SNE23 P0000 I1000 T00110000 $
KMSN - Truax Field, Madison, WI
Updated: 01/18/2020 6:27am
Light snow, Mist, Overcast
Light snow, Mist, Overcast
 Wind from SE
Wind: SE 3 mph , 6 km/h
Temperature: 28°F , -2°C
Dew Point: 28°F , -2°C
Humidity: 100%
Barometer: 29.67 inHg , 1004.7 hPa
Summary: Light snow, Mist
Clouds: Overcast
Visibility: 2 miles , 3 km
Cloud details: Overcast 600 ft
2020/01/18 12:27 KMSN 181227Z 14003KT 2SM -SN BR OVC006 M02/M02 A2967 RMK AO2 PLE01SNB01 P0001 T10171022
 
KGRB - Austin Strable Field, Green Bay, WI
Updated: 01/18/2020 6:30am
Light snow, Mist, Overcast
Light snow, Mist, Overcast
 Wind from ESE
Wind: ESE 8 mph , 13 km/h
Temperature: 30°F , -1°C
Wind Chill: 22°F , -6°C
Dew Point: 28°F , -2°C
Humidity: 93%
Barometer: 29.73 inHg , 1006.8 hPa
Summary: Light snow, Mist
Clouds: Overcast
Visibility: 1 3/4 miles , 2.8 km
Cloud details: Mostly cloudy 900 ft
Overcast 1500 ft
2020/01/18 12:30 KGRB 181230Z 11007KT 1 3/4SM -SN BR BKN009 OVC015 M01/M02 A2973 RMK AO2 P0001 T10111
KSUW - Bong Airport, Superior, WI
Updated: 01/18/2020 6:35am
Light snow, Overcast
Light snow, Overcast
 Wind from NE
Wind: NE 3 mph , 6 km/h
Temperature: 25°F , -4°C
Dew Point: 23°F , -5°C
Humidity: 93%
Barometer: 29.76 inHg , 1007.8 hPa
Summary: Light Snow
Clouds: Overcast
Visibility: 1 1/4 miles , 2 km
Cloud details: Mostly cloudy 900 ft
Overcast 1400 ft
2020/01/18 12:35 KSUW 181235Z AUTO 05003KT 1 1/4SM -SN BKN009 OVC014 M04/M05 A2976 RMK AO2 P0001 T10451050
 
KLSE - La Crosse Municipal Airport, La Crosse, WI
Updated: 01/18/2020 5:59am
Light snow, Mist, Overcast
Light snow, Mist, Overcast
 Wind from calm
Wind: Calm
Temperature: 28°F , -2°C
Dew Point: 25°F , -4°C
Humidity: 86%
Barometer: 29.72 inHg , 1006.4 hPa
Summary: Light snow, Mist
Clouds: Overcast
Visibility: 1 3/4 miles , 2.8 km
Cloud details: Partly cloudy 1200 ft
Overcast 2100 ft
2020/01/18 11:59 KLSE 181159Z 00000KT 1 3/4SM -SN BR SCT012 OVC021 M02/M04 A2972 RMK AO2 P0000 T10221039
KIMT - Ford Field, Iron Mountain, MI
Updated: 01/18/2020 6:26am
Light snow, Mist, Overcast
Light snow, Mist, Overcast
 Wind from E
Wind: E 8 mph , 13 km/h
Temperature: 25°F , -4°C
Wind Chill: 16°F , -9°C
Dew Point: 21°F , -6°C
Humidity: 86%
Barometer: 29.74 inHg , 1007.1 hPa
Summary: Light snow, Mist
Clouds: Overcast
Visibility: 1 mile , 2 km
Cloud details: Few Clouds 700 ft
Overcast 1400 ft
2020/01/18 12:26 KIMT 181226Z AUTO 10007KT 1SM -SN BR FEW007 OVC014 M04/M06 A2974 RMK AO2 PRESFR P0000 T10441061
 
KSAW - K.I. Sawyer Field, Marquette, MI
Updated: 01/18/2020 5:48am
Snow, Overcast
Snow, Overcast
 Wind from SE
Wind: SE 17 mph , 28 km/h, Gust: 24 mph , 39 km/h
Temperature: 25°F , -4°C
Wind Chill: 12°F , -11°C
Dew Point: 21°F , -6°C
Humidity: 86%
Barometer: 29.84 inHg , 1010.5 hPa
Summary: Snow
Clouds: Overcast
Visibility: 1 mile , 2 km
Cloud details: Overcast 1000 ft
2020/01/18 11:48 KSAW 181148Z 14015G21KT 1SM SN OVC010 M04/M06 A2984
KIWD - Iron County Airport, Ironwood, MI
Updated: 01/18/2020 6:25am
Light snow, Mist, Overcast
Light snow, Mist, Overcast
 Wind from E
Wind: E 6 mph , 9 km/h
Temperature: 21°F , -6°C
Wind Chill: 13°F , -11°C
Dew Point: 19°F , -7°C
Humidity: 93%
Barometer: 29.74 inHg , 1007.1 hPa
Summary: Light snow, Mist
Clouds: Overcast
Visibility: 1 3/4 miles , 2.8 km
Cloud details: Partly cloudy 1700 ft
Mostly cloudy 2300 ft
Overcast 3300 ft
2020/01/18 12:25 KIWD 181225Z AUTO 10005KT 1 3/4SM -SN BR SCT017 BKN023 OVC033 M06/M07 A2974 RMK AO2 P0000 FZRANO